createdAt,value
2016-12-19T00:00:37.979Z,61.46
2016-12-19T00:01:46.953Z,61.65
2016-12-19T00:02:55.985Z,61.46
2016-12-19T00:04:04.988Z,61.65
2016-12-19T00:05:13.958Z,61.33
2016-12-19T00:06:22.998Z,61.46
2016-12-19T00:07:31.973Z,61.23
2016-12-19T00:08:40.957Z,61.36
2016-12-19T00:09:49.938Z,61.43
2016-12-19T00:10:58.914Z,61.61
2016-12-19T00:12:07.889Z,61.43
2016-12-19T00:13:16.847Z,61.81
2016-12-19T00:14:25.844Z,61.33
2016-12-19T00:15:35.044Z,62
2016-12-19T00:16:44.029Z,61.81
2016-12-19T00:17:53.012Z,61.43
2016-12-19T00:19:02.010Z,61.43
2016-12-19T00:20:10.978Z,61.43
2016-12-19T00:21:19.962Z,61.43
2016-12-19T00:22:29.046Z,61.81
2016-12-19T00:23:38.064Z,61.52
2016-12-19T00:24:47.033Z,61.33
2016-12-19T00:25:56.229Z,61.52
2016-12-19T00:27:05.192Z,61.52
2016-12-19T00:28:14.180Z,61.33
2016-12-19T00:29:23.302Z,61.14
2016-12-19T00:30:32.282Z,61.04
2016-12-19T00:31:41.275Z,61.33
2016-12-19T00:32:50.296Z,60.94
2016-12-19T00:33:59.285Z,61.11
2016-12-19T00:35:08.398Z,61.43
2016-12-19T00:36:17.409Z,61.4
2016-12-19T00:37:26.385Z,61.78
2016-12-19T00:38:35.352Z,61.4
2016-12-19T00:39:44.377Z,61.58
2016-12-19T00:40:53.385Z,61.58
2016-12-19T00:42:02.379Z,62.07
2016-12-19T00:43:11.355Z,61.4
2016-12-19T00:44:20.354Z,61.49
2016-12-19T00:45:29.356Z,62.07
2016-12-19T00:46:38.342Z,61.78
2016-12-19T00:47:47.391Z,61.94
2016-12-19T00:48:56.364Z,61.94
2016-12-19T00:50:05.351Z,62.13
2016-12-19T00:51:14.478Z,61.84
2016-12-19T00:52:23.449Z,61.55
2016-12-19T00:53:32.451Z,62.04
2016-12-19T00:54:41.766Z,61.55
2016-12-19T00:55:50.777Z,61.84
2016-12-19T00:56:59.748Z,61.55
2016-12-19T00:58:08.788Z,62.32
2016-12-19T00:59:17.761Z,62.42
2016-12-19T01:00:26.786Z,62.32
2016-12-19T01:01:35.835Z,62.87
2016-12-19T01:02:44.815Z,62.77
2016-12-19T01:03:56.849Z,63.06
2016-12-19T01:05:05.834Z,62.87
2016-12-19T01:06:14.814Z,62.77
2016-12-19T01:07:23.782Z,63.25
2016-12-19T01:08:32.757Z,62.87
2016-12-19T01:09:41.803Z,62.77
2016-12-19T01:10:50.766Z,62.96
2016-12-19T01:11:59.753Z,62.48
2016-12-19T01:13:09.131Z,63.16
2016-12-19T01:14:18.133Z,62.96
2016-12-19T01:15:27.128Z,62.68
2016-12-19T01:16:36.132Z,63.16
2016-12-19T01:17:45.134Z,63.25
2016-12-19T01:18:54.123Z,62.77
2016-12-19T01:20:03.337Z,62.87
2016-12-19T01:21:12.312Z,63.16
2016-12-19T01:22:21.593Z,62.68
2016-12-19T01:23:31.056Z,62.04
2016-12-19T01:24:40.064Z,61.94
2016-12-19T01:25:49.235Z,62.04
2016-12-19T01:26:58.218Z,61.65
2016-12-19T01:28:07.195Z,61.75
2016-12-19T01:29:16.304Z,62.39
2016-12-19T01:30:25.290Z,61.75
2016-12-19T01:31:34.270Z,61.94
2016-12-19T01:32:43.315Z,62.29
2016-12-19T01:33:52.293Z,62.39
2016-12-19T01:35:01.261Z,61.75
2016-12-19T01:36:10.239Z,61.65
2016-12-19T01:37:19.222Z,62.39
2016-12-19T01:38:28.602Z,62.19
2016-12-19T01:39:37.622Z,62.39
2016-12-19T01:40:46.591Z,62.87
2016-12-19T01:41:55.655Z,63.06
2016-12-19T01:43:04.639Z,63.06
2016-12-19T01:44:13.613Z,63.35
2016-12-19T01:45:22.665Z,62.93
2016-12-19T01:46:31.648Z,63.03
2016-12-19T01:47:40.618Z,63.45
2016-12-19T01:48:49.933Z,63.22
2016-12-19T01:49:58.917Z,63.79
2016-12-19T01:51:07.888Z,63.7
2016-12-19T01:52:16.954Z,63.7
2016-12-19T01:53:25.961Z,63.6
2016-12-19T01:54:35.134Z,63.12
2016-12-19T01:55:44.127Z,63.7
2016-12-19T01:56:53.099Z,63.32
2016-12-19T01:58:02.311Z,63.6
2016-12-19T01:59:11.294Z,63.51
2016-12-19T02:00:20.277Z,63.32
2016-12-19T02:01:29.328Z,63.89
2016-12-19T02:02:38.319Z,64.28
2016-12-19T02:03:47.304Z,64.18
2016-12-19T02:04:56.267Z,64.09
2016-12-19T02:06:05.242Z,64.18
2016-12-19T02:07:14.232Z,64.18
2016-12-19T02:08:23.197Z,64.09
2016-12-19T02:09:32.171Z,63.7
2016-12-19T02:10:41.363Z,63.32
2016-12-19T02:11:50.344Z,63.42
2016-12-19T02:12:59.324Z,63.12
2016-12-19T02:14:08.815Z,63.12
2016-12-19T02:15:17.826Z,63.22
2016-12-19T02:16:26.807Z,62.36
2016-12-19T02:17:35.934Z,62.77
2016-12-19T02:18:44.913Z,62.96
2016-12-19T02:19:53.891Z,62.39
2016-12-19T02:21:02.949Z,62.29
2016-12-19T02:22:11.936Z,62.1
2016-12-19T02:23:21.023Z,61.33
2016-12-19T02:24:30.035Z,62.01
2016-12-19T02:25:39.039Z,62.19
2016-12-19T02:26:48.179Z,62.01
2016-12-19T02:27:57.185Z,62.19
2016-12-19T02:29:06.166Z,61.62
2016-12-19T02:30:15.290Z,61.91
2016-12-19T02:31:24.261Z,61.62
2016-12-19T02:32:33.228Z,61.52
2016-12-19T02:33:42.203Z,61.52
2016-12-19T02:34:51.190Z,61.33
2016-12-19T02:36:00.165Z,61.62
2016-12-19T02:37:09.131Z,62.01
2016-12-19T02:38:18.118Z,61.52
2016-12-19T02:39:27.143Z,61.33
2016-12-19T02:40:36.126Z,61.33
2016-12-19T02:41:45.096Z,61.91
2016-12-19T02:42:54.265Z,61.91
2016-12-19T02:44:03.233Z,61.72
2016-12-19T02:45:12.209Z,61.62
2016-12-19T02:46:21.437Z,61.62
2016-12-19T02:47:30.752Z,62.19
2016-12-19T02:48:40.061Z,62.65
2016-12-19T02:49:49.123Z,62.93
2016-12-19T02:50:58.107Z,63.03
2016-12-19T02:52:07.495Z,63.03
2016-12-19T02:53:16.510Z,62.74
2016-12-19T02:54:25.478Z,62.65
2016-12-19T02:55:34.584Z,63.22
2016-12-19T02:56:43.559Z,63.03
2016-12-19T02:57:52.542Z,63.22
2016-12-19T02:59:01.518Z,63.12
2016-12-19T03:00:10.501Z,63.6
2016-12-19T03:01:19.475Z,63.51
2016-12-19T03:02:28.456Z,63.99
2016-12-19T03:03:37.439Z,64.25
2016-12-19T03:04:46.587Z,63.67
2016-12-19T03:05:55.551Z,63.57
2016-12-19T03:07:04.543Z,63.48
2016-12-19T03:08:13.909Z,63.96
2016-12-19T03:09:22.897Z,64.25
2016-12-19T03:10:31.874Z,64.25
2016-12-19T03:11:41.249Z,63.76
2016-12-19T03:12:50.219Z,63.96
2016-12-19T03:13:59.196Z,63.76
2016-12-19T03:15:08.310Z,64.15
2016-12-19T03:16:17.297Z,63.96
2016-12-19T03:17:26.361Z,64.15
2016-12-19T03:18:35.414Z,64.53
2016-12-19T03:19:44.383Z,64.25
2016-12-19T03:20:53.674Z,63.96
2016-12-19T03:22:02.648Z,64.25
2016-12-19T03:23:11.617Z,63.96
2016-12-19T03:24:20.601Z,64.15
2016-12-19T03:25:29.576Z,63.38
2016-12-19T03:26:38.547Z,63.32
2016-12-19T03:27:47.525Z,62.55
2016-12-19T03:28:56.502Z,62.39
2016-12-19T03:30:05.481Z,61.91
2016-12-19T03:31:14.453Z,62.07
2016-12-19T03:32:23.424Z,62.07
2016-12-19T03:33:32.763Z,61.81
2016-12-19T03:34:41.770Z,61.52
2016-12-19T03:35:50.736Z,61.33
2016-12-19T03:36:59.958Z,61.72
2016-12-19T03:38:08.933Z,61.72
2016-12-19T03:39:17.913Z,61.33
2016-12-19T03:40:26.928Z,61.81
2016-12-19T03:41:35.912Z,61.88
2016-12-19T03:42:44.882Z,61.81
2016-12-19T03:43:53.967Z,61.43
2016-12-19T03:45:02.938Z,61.52
2016-12-19T03:46:12.040Z,61.24
2016-12-19T03:47:21.139Z,61.24
2016-12-19T03:48:30.122Z,60.75
2016-12-19T03:49:39.456Z,61.24
2016-12-19T03:50:48.438Z,61.43
2016-12-19T03:51:57.400Z,61.33
2016-12-19T03:53:06.464Z,61.05
2016-12-19T03:54:15.446Z,61.62
2016-12-19T03:55:24.417Z,61.24
2016-12-19T03:56:33.395Z,61.14
2016-12-19T03:57:42.380Z,61.33
2016-12-19T03:58:51.352Z,61.52
2016-12-19T04:00:00.334Z,61.33
2016-12-19T04:01:09.313Z,61.33
2016-12-19T04:02:18.352Z,61.4
2016-12-19T04:03:27.330Z,61.52
2016-12-19T04:04:36.305Z,61.33
2016-12-19T04:05:45.519Z,60.95
2016-12-19T04:06:54.500Z,61.43
2016-12-19T04:08:03.483Z,61.62
2016-12-19T04:09:12.834Z,61.72
2016-12-19T04:10:21.813Z,61.78
2016-12-19T04:11:30.798Z,62.45
2016-12-19T04:12:39.951Z,63.19
2016-12-19T04:13:48.930Z,62.74
2016-12-19T04:14:57.960Z,62.65
2016-12-19T04:16:07.036Z,62.65
2016-12-19T04:17:15.996Z,62.07
2016-12-19T04:18:24.993Z,61.69
2016-12-19T04:19:33.972Z,61.69
2016-12-19T04:20:42.951Z,61.88
2016-12-19T04:21:52.321Z,61.88
2016-12-19T04:23:01.304Z,61.69
2016-12-19T04:24:10.283Z,61.49
2016-12-19T04:25:19.259Z,62.07
2016-12-19T04:26:28.235Z,61.88
2016-12-19T04:27:37.417Z,62.36
2016-12-19T04:28:46.407Z,62.93
2016-12-19T04:29:55.378Z,62.81
2016-12-19T04:31:04.386Z,63
2016-12-19T04:32:13.354Z,61.98
2016-12-19T04:33:22.333Z,62.26
2016-12-19T04:34:31.363Z,61.59
2016-12-19T04:35:40.348Z,61.62
2016-12-19T04:36:49.317Z,61.33
2016-12-19T04:37:58.564Z,61.33
2016-12-19T04:39:07.552Z,61.88
2016-12-19T04:40:16.531Z,61.88
2016-12-19T04:41:25.662Z,61.3
2016-12-19T04:42:34.642Z,61.4
2016-12-19T04:43:43.662Z,61.69
2016-12-19T04:44:52.653Z,62.36
2016-12-19T04:46:01.632Z,62.36
2016-12-19T04:47:10.683Z,61.88
2016-12-19T04:48:19.665Z,61.98
2016-12-19T04:49:28.671Z,61.78
2016-12-19T04:50:37.661Z,61.4
2016-12-19T04:51:46.632Z,61.69
2016-12-19T04:52:55.614Z,61.88
2016-12-19T04:54:04.683Z,61.59
2016-12-19T04:55:13.657Z,61.98
2016-12-19T04:56:22.618Z,62.07
2016-12-19T04:57:31.611Z,62.26
2016-12-19T04:58:40.576Z,61.59
2016-12-19T04:59:49.718Z,61.98
2016-12-19T05:00:58.699Z,61.78
2016-12-19T05:02:07.684Z,61.78
2016-12-19T05:03:17.247Z,61.69
2016-12-19T05:04:26.234Z,61.49
2016-12-19T05:05:35.213Z,61.4
2016-12-19T05:06:44.508Z,61.78
2016-12-19T05:07:53.492Z,61.78
2016-12-19T05:09:02.463Z,61.78
2016-12-19T05:10:11.502Z,61.4
2016-12-19T05:11:20.519Z,61.98
2016-12-19T05:12:29.525Z,61.49
2016-12-19T05:13:38.932Z,61.21
2016-12-19T05:14:47.901Z,61.69
2016-12-19T05:15:56.961Z,61.59
2016-12-19T05:17:05.930Z,61.69
2016-12-19T05:18:14.907Z,61.62
2016-12-19T05:19:24.014Z,61.69
2016-12-19T05:20:32.993Z,61.4
2016-12-19T05:21:41.958Z,61.91
2016-12-19T05:22:50.964Z,61.72
2016-12-19T05:23:59.949Z,61.78
2016-12-19T05:25:08.921Z,61.98
2016-12-19T05:26:17.891Z,61.69
2016-12-19T05:27:26.866Z,61.88
2016-12-19T05:28:35.936Z,61.88
2016-12-19T05:29:44.914Z,61.69
2016-12-19T05:30:53.896Z,62.36
2016-12-19T05:32:03.019Z,62.36
2016-12-19T05:33:12.024Z,61.78
2016-12-19T05:34:21.731Z,61.98
2016-12-19T05:35:30.813Z,61.81
2016-12-19T05:36:39.829Z,61.98
2016-12-19T05:37:48.961Z,61.98
2016-12-19T05:38:57.990Z,61.59
2016-12-19T05:40:06.963Z,61.98
2016-12-19T05:41:15.982Z,61.59
2016-12-19T05:42:25.153Z,61.3
2016-12-19T05:43:34.120Z,61.4
2016-12-19T05:44:43.263Z,61.88
2016-12-19T05:45:52.243Z,61.98
2016-12-19T05:47:01.228Z,61.78
2016-12-19T05:48:10.411Z,62.16
2016-12-19T05:49:19.382Z,62.26
2016-12-19T05:50:28.360Z,62.45
2016-12-19T05:51:37.334Z,62.36
2016-12-19T05:52:46.313Z,61.88
2016-12-19T05:53:55.291Z,61.49
2016-12-19T05:55:04.279Z,62.16
2016-12-19T05:56:13.286Z,62.07
2016-12-19T05:57:22.371Z,62.26
2016-12-19T05:58:31.348Z,63.12
2016-12-19T05:59:40.317Z,63.48
2016-12-19T06:00:49.604Z,63.57
2016-12-19T06:01:58.572Z,63.19
2016-12-19T06:03:07.549Z,62.52
2016-12-19T06:04:16.676Z,62.16
2016-12-19T06:05:26.026Z,62.16
2016-12-19T06:06:35.111Z,62.26
2016-12-19T06:07:44.158Z,62.13
2016-12-19T06:08:53.124Z,62.16
2016-12-19T06:10:02.157Z,63.51
2016-12-19T06:11:11.178Z,67.22
2016-12-19T06:12:20.159Z,71.76
2016-12-19T06:13:29.175Z,73.3
2016-12-19T06:14:38.144Z,75.79
2016-12-19T06:15:47.132Z,76.84
2016-12-19T06:16:56.184Z,76.75
2016-12-19T06:18:05.153Z,76.84
2016-12-19T06:19:14.150Z,77.8
2016-12-19T06:20:23.125Z,77.9
2016-12-19T06:21:32.113Z,78.67
2016-12-19T06:22:41.268Z,74.48
2016-12-19T06:23:50.268Z,73.62
2016-12-19T06:24:59.241Z,77.08
2016-12-19T06:26:08.498Z,78.52
2016-12-19T06:27:17.462Z,78.99
2016-12-19T06:28:26.450Z,77.75
2016-12-19T06:29:35.444Z,78.32
2016-12-19T06:30:44.412Z,76.02
2016-12-19T06:31:53.390Z,73.72
2016-12-19T06:33:02.451Z,75.35
2016-12-19T06:34:11.435Z,76.92
2016-12-19T06:35:20.398Z,76.64
2016-12-19T06:36:29.760Z,76.44
2016-12-19T06:37:38.743Z,75.77
2016-12-19T06:38:47.954Z,74.9
2016-12-19T06:39:57.032Z,75.77
2016-12-19T06:41:06.013Z,76.06
2016-12-19T06:42:15.144Z,75.77
2016-12-19T06:43:24.218Z,75.77
2016-12-19T06:44:33.198Z,75.1
2016-12-19T06:45:42.378Z,75.9
2016-12-19T06:46:51.345Z,75.13
2016-12-19T06:48:00.328Z,74.85
2016-12-19T06:49:09.396Z,74.55
2016-12-19T06:50:18.387Z,74.75
2016-12-19T06:51:27.376Z,75.04
2016-12-19T06:52:36.353Z,74.46
2016-12-19T06:53:45.329Z,74.65
2016-12-19T06:54:54.524Z,75.71
2016-12-19T06:56:03.501Z,74.94
2016-12-19T06:57:12.479Z,74.37
2016-12-19T06:58:21.980Z,75.52
2016-12-19T06:59:30.948Z,74.85
2016-12-19T07:00:39.932Z,75.81
2016-12-19T07:01:49.145Z,75.52
2016-12-19T07:02:58.117Z,74.94
2016-12-19T07:04:07.098Z,75.42
2016-12-19T07:05:16.163Z,75.42
2016-12-19T07:06:25.163Z,75.04
2016-12-19T07:07:34.174Z,75.32
2016-12-19T07:08:43.501Z,75.81
2016-12-19T07:09:52.477Z,75.52
2016-12-19T07:11:01.506Z,75.56
2016-12-19T07:12:10.512Z,75.07
2016-12-19T07:13:19.508Z,74.88
2016-12-19T07:14:28.775Z,76.61
2016-12-19T07:15:38.077Z,76.14
2016-12-19T07:16:47.110Z,76.23
2016-12-19T07:17:56.230Z,77.38
2016-12-19T07:19:05.212Z,76.61
2016-12-19T07:20:14.181Z,75.75
2016-12-19T07:21:23.810Z,75.94
2016-12-19T07:22:32.919Z,75.56
2016-12-19T07:23:41.915Z,75.94
2016-12-19T07:24:51.284Z,75.07
2016-12-19T07:26:00.309Z,74.3
2016-12-19T07:27:09.291Z,74.98
2016-12-19T07:28:18.268Z,75.27
2016-12-19T07:29:27.254Z,74.6
2016-12-19T07:30:36.238Z,74.88
2016-12-19T07:31:45.213Z,75.27
2016-12-19T07:32:54.192Z,74.73
2016-12-19T07:34:03.170Z,76.07
2016-12-19T07:35:12.160Z,75.49
2016-12-19T07:36:21.141Z,74.73
2016-12-19T07:39:09.333Z,74.92
2016-12-19T07:40:20.618Z,74.44
2016-12-19T07:41:29.607Z,75.02
2016-12-19T07:42:38.586Z,75.31
2016-12-19T07:43:47.658Z,75.21
2016-12-19T07:44:56.637Z,75.15
2016-12-19T07:46:05.631Z,74.82
2016-12-19T07:47:14.624Z,74.38
2016-12-19T07:48:23.637Z,74.86
2016-12-19T07:49:32.656Z,74.76
2016-12-19T07:50:41.768Z,73.61
2016-12-19T07:51:51.113Z,74.09
2016-12-19T07:53:00.612Z,74.19
2016-12-19T07:54:10.716Z,74.09
2016-12-19T07:55:19.695Z,74.09
2016-12-19T07:56:28.673Z,74.38
2016-12-19T07:57:37.648Z,74.19
2016-12-19T07:58:46.663Z,74.48
2016-12-19T07:59:55.650Z,73.8
2016-12-19T08:01:04.630Z,74.51
2016-12-19T08:02:13.595Z,74.41
2016-12-19T08:03:22.581Z,74.13
2016-12-19T08:04:31.558Z,74.41
2016-12-19T08:05:40.574Z,74.8
2016-12-19T08:06:49.545Z,74.41
2016-12-19T08:07:58.536Z,74.22
2016-12-19T08:09:07.508Z,74.8
2016-12-19T08:10:16.502Z,74.51
2016-12-19T08:11:25.472Z,74.22
2016-12-19T08:12:34.458Z,74.8
2016-12-19T08:13:43.435Z,74.8
2016-12-19T08:14:52.432Z,74.22
2016-12-19T08:16:01.434Z,74.61
2016-12-19T08:17:10.425Z,74.61
2016-12-19T08:18:19.400Z,74.8
2016-12-19T08:19:28.387Z,74.8
2016-12-19T08:20:37.371Z,74.9
2016-12-19T08:21:46.354Z,74.71
2016-12-19T08:22:55.322Z,72.88
2016-12-19T08:24:04.306Z,66.81
2016-12-19T08:25:13.287Z,65.24
2016-12-19T08:26:22.270Z,65.43
2016-12-19T08:27:31.257Z,66.01
2016-12-19T08:28:40.226Z,66.17
2016-12-19T08:29:49.197Z,65.37
2016-12-19T08:30:58.179Z,64.63
2016-12-19T08:32:07.157Z,63.95
2016-12-19T08:33:16.161Z,63.48
2016-12-19T08:34:25.128Z,63.86
2016-12-19T08:35:34.111Z,63.86
2016-12-19T08:36:43.081Z,64.5
2016-12-19T08:37:52.078Z,64.76
2016-12-19T08:39:01.056Z,64.37
2016-12-19T08:40:10.026Z,64.18
2016-12-19T08:41:19.013Z,64.66
2016-12-19T08:42:27.989Z,64.47
2016-12-19T08:43:37.029Z,65.43
2016-12-19T08:44:46.055Z,65.49
2016-12-19T08:45:55.023Z,65.3
2016-12-19T08:47:03.998Z,65.27
2016-12-19T08:48:12.976Z,65.27
2016-12-19T08:49:21.957Z,64.92
2016-12-19T08:50:30.929Z,64.59
2016-12-19T08:51:39.958Z,64.82
2016-12-19T08:52:48.961Z,64.92
2016-12-19T08:53:57.948Z,64.69
2016-12-19T08:55:06.924Z,65.17
2016-12-19T08:56:15.912Z,65.27
2016-12-19T08:57:24.916Z,65.72
2016-12-19T08:58:33.889Z,66.39
2016-12-19T08:59:42.869Z,66
2016-12-19T09:00:51.858Z,65.52
2016-12-19T09:02:00.821Z,65.43
2016-12-19T09:03:09.813Z,65.81
2016-12-19T09:04:18.780Z,65.72
2016-12-19T09:05:27.757Z,66.19
2016-12-19T09:06:36.737Z,66.19
2016-12-19T09:07:45.709Z,66.19
2016-12-19T09:08:54.682Z,66.83
2016-12-19T09:10:03.695Z,66.55
2016-12-19T09:11:12.661Z,66.74
2016-12-19T09:12:21.657Z,66.55
2016-12-19T09:13:30.642Z,66.74
2016-12-19T09:14:39.621Z,65.52
2016-12-19T09:15:48.600Z,65.91
2016-12-19T09:16:57.566Z,65.81
2016-12-19T09:18:06.578Z,65.62
2016-12-19T09:19:15.559Z,64.76
2016-12-19T09:20:24.534Z,64.22
2016-12-19T09:21:33.520Z,62.96
2016-12-19T09:22:42.502Z,62.71
2016-12-19T09:23:51.463Z,62.07
2016-12-19T09:25:00.479Z,62.35
2016-12-19T09:26:09.453Z,62.26
2016-12-19T09:27:18.434Z,62.07
2016-12-19T09:28:27.401Z,62.45
2016-12-19T09:29:36.393Z,62.99
2016-12-19T09:30:45.382Z,62.26
2016-12-19T09:31:54.365Z,62.23
2016-12-19T09:33:03.339Z,62.35
2016-12-19T09:34:12.308Z,62.07
2016-12-19T09:35:21.280Z,62.16
2016-12-19T09:36:30.268Z,62.35
2016-12-19T09:37:39.243Z,62.26
2016-12-19T09:38:48.216Z,61.58
2016-12-19T09:39:57.225Z,62.16
2016-12-19T09:41:06.201Z,61.84
2016-12-19T09:42:15.168Z,61.97
2016-12-19T09:43:24.156Z,61.55
2016-12-19T09:44:33.143Z,61.84
2016-12-19T09:45:42.114Z,62.04
2016-12-19T09:46:51.101Z,61.94
2016-12-19T09:48:00.071Z,62.32
2016-12-19T09:49:09.043Z,62.39
2016-12-19T09:50:18.014Z,61.94
2016-12-19T09:51:27.008Z,62.96
2016-12-19T09:52:35.984Z,63.54
2016-12-19T09:53:44.961Z,63.54
2016-12-19T09:54:53.931Z,63.16
2016-12-19T09:56:02.898Z,62.96
2016-12-19T09:57:11.880Z,62.77
2016-12-19T09:58:20.874Z,63.79
2016-12-19T09:59:29.843Z,64.47
2016-12-19T10:00:38.835Z,64.47
2016-12-19T10:01:47.803Z,64.56
2016-12-19T10:02:56.781Z,63.99
2016-12-19T10:04:05.762Z,64.37
2016-12-19T10:05:14.777Z,65.05
2016-12-19T10:06:23.763Z,65.3
2016-12-19T10:07:32.756Z,65.01
2016-12-19T10:08:41.735Z,64.15
2016-12-19T10:09:50.709Z,64.47
2016-12-19T10:10:59.703Z,65.14
2016-12-19T10:12:08.679Z,65.49
2016-12-19T10:13:17.645Z,64.72
2016-12-19T10:14:26.614Z,64.18
2016-12-19T10:15:35.595Z,64.37
2016-12-19T10:16:44.566Z,63.42
2016-12-19T10:17:53.558Z,63.51
2016-12-19T10:19:02.540Z,63.7
2016-12-19T10:20:11.516Z,63.64
2016-12-19T10:21:20.487Z,63.16
2016-12-19T10:22:29.486Z,62.68
2016-12-19T10:23:38.648Z,62.87
2016-12-19T10:24:47.640Z,62.48
2016-12-19T10:25:56.611Z,62.48
2016-12-19T10:27:05.588Z,61.94
2016-12-19T10:28:14.577Z,62.29
2016-12-19T10:29:23.558Z,62.32
2016-12-19T10:30:32.532Z,62.42
2016-12-19T10:31:41.505Z,62.04
2016-12-19T10:32:50.476Z,61.55
2016-12-19T10:33:59.449Z,62.13
2016-12-19T10:35:08.761Z,62.01
2016-12-19T10:36:17.750Z,61.91
2016-12-19T10:37:26.724Z,62.23
2016-12-19T10:38:35.734Z,61.91
2016-12-19T10:39:44.714Z,61.75
2016-12-19T10:40:53.693Z,61.84
2016-12-19T10:42:02.664Z,62.42
2016-12-19T10:43:11.634Z,62.01
2016-12-19T10:44:20.619Z,62.29
2016-12-19T10:45:29.584Z,62.39
2016-12-19T10:46:38.575Z,62.29
2016-12-19T10:47:47.546Z,62.68
2016-12-19T10:48:56.518Z,62.93
2016-12-19T10:50:05.498Z,63.12
2016-12-19T10:51:14.478Z,63.32
2016-12-19T10:52:23.457Z,63.51
2016-12-19T10:53:32.433Z,63.32
2016-12-19T10:54:41.416Z,63.6
2016-12-19T10:55:50.387Z,63.7
2016-12-19T10:56:59.354Z,63.51
2016-12-19T10:58:08.337Z,64.47
2016-12-19T10:59:17.304Z,65.11
2016-12-19T11:00:26.290Z,65.01
2016-12-19T11:01:35.263Z,65.11
2016-12-19T11:02:44.232Z,65.39
2016-12-19T11:03:53.206Z,65.49
2016-12-19T11:05:02.187Z,64.63
2016-12-19T11:06:11.182Z,64.53
2016-12-19T11:07:20.156Z,64.05
2016-12-19T11:08:29.162Z,64.05
2016-12-19T11:09:38.121Z,64.28
2016-12-19T11:10:47.115Z,63.7
2016-12-19T11:11:56.086Z,63.96
2016-12-19T11:13:05.063Z,63.96
2016-12-19T11:14:14.045Z,63.51
2016-12-19T11:15:23.027Z,63.51
2016-12-19T11:16:32.014Z,63.03
2016-12-19T11:17:40.987Z,62.74
2016-12-19T11:18:49.959Z,62.93
2016-12-19T11:19:58.938Z,62.77
2016-12-19T11:21:07.918Z,62.58
2016-12-19T11:22:16.901Z,62.87
2016-12-19T11:23:25.922Z,62.65
2016-12-19T11:24:34.900Z,62.68
2016-12-19T11:25:43.866Z,62.29
2016-12-19T11:26:52.940Z,62.1
2016-12-19T11:28:02.069Z,62.01
2016-12-19T11:29:11.580Z,62.39
2016-12-19T11:30:20.554Z,63.03
2016-12-19T11:31:29.515Z,62.39
2016-12-19T11:32:38.494Z,62.45
2016-12-19T11:33:47.479Z,62.36
2016-12-19T11:34:56.460Z,62.39
2016-12-19T11:36:05.442Z,62.77
2016-12-19T11:37:14.432Z,62.48
2016-12-19T11:38:23.401Z,62.36
2016-12-19T11:39:32.373Z,62.19
2016-12-19T11:40:41.363Z,62.1
2016-12-19T11:41:50.345Z,62.84
2016-12-19T11:42:59.310Z,63.12
2016-12-19T11:44:08.323Z,62.84
2016-12-19T11:45:17.295Z,62.74
2016-12-19T11:46:26.283Z,62.84
2016-12-19T11:47:35.256Z,63.03
2016-12-19T11:48:44.231Z,63.03
2016-12-19T11:49:53.199Z,63.03
2016-12-19T11:51:02.173Z,62.74
2016-12-19T11:52:11.137Z,62.84
2016-12-19T11:53:20.111Z,62.93
2016-12-19T11:54:29.095Z,62.36
2016-12-19T11:55:38.072Z,61.98
2016-12-19T11:56:47.049Z,62.19
2016-12-19T11:57:56.024Z,62.29
2016-12-19T11:59:05.003Z,62.1
2016-12-19T12:00:13.972Z,62.45
2016-12-19T12:01:22.947Z,62.01
2016-12-19T12:02:31.936Z,61.91
2016-12-19T12:03:40.919Z,62.36
2016-12-19T12:04:49.892Z,62.55
2016-12-19T12:05:58.880Z,62.07
2016-12-19T12:07:07.890Z,62.01
2016-12-19T12:08:16.868Z,62.74
2016-12-19T12:09:25.852Z,62.74
2016-12-19T12:10:34.827Z,62.48
2016-12-19T12:11:43.803Z,62.96
2016-12-19T12:12:52.782Z,62.93
2016-12-19T12:14:01.755Z,62.65
2016-12-19T12:15:10.730Z,62.84
2016-12-19T12:16:19.710Z,63.22
2016-12-19T12:17:28.684Z,62.74
2016-12-19T12:18:37.655Z,62.55
2016-12-19T12:19:46.631Z,62.36
2016-12-19T12:20:55.605Z,62.26
2016-12-19T12:22:04.583Z,63.12
2016-12-19T12:23:13.570Z,62.93
2016-12-19T12:24:22.540Z,63.03
2016-12-19T12:25:31.509Z,63.12
2016-12-19T12:26:40.480Z,63.22
2016-12-19T12:27:49.462Z,63.12
2016-12-19T12:28:58.448Z,62.74
2016-12-19T12:30:07.464Z,62.65
2016-12-19T12:31:16.429Z,62.45
2016-12-19T12:32:25.414Z,63.03
2016-12-19T12:33:34.399Z,62.36
2016-12-19T12:34:43.387Z,61.98
2016-12-19T12:35:52.359Z,62.26
2016-12-19T12:37:01.340Z,63.22
2016-12-19T12:38:10.347Z,62.65
2016-12-19T12:39:19.317Z,62.26
2016-12-19T12:40:28.297Z,62.07
2016-12-19T12:41:37.286Z,61.98
2016-12-19T12:42:46.250Z,62.36
2016-12-19T12:43:55.237Z,62.84
2016-12-19T12:45:04.205Z,62.65
2016-12-19T12:46:13.186Z,62.93
2016-12-19T12:47:22.157Z,62.74
2016-12-19T12:48:31.147Z,62.93
2016-12-19T12:49:40.123Z,63.03
2016-12-19T12:50:49.105Z,63.03
2016-12-19T12:51:58.075Z,63.12
2016-12-19T12:53:07.040Z,62.16
2016-12-19T12:54:16.039Z,62.26
2016-12-19T12:55:25.014Z,62.65
2016-12-19T12:56:33.984Z,62.74
2016-12-19T12:57:42.967Z,63.03
2016-12-19T12:58:51.940Z,63.03
2016-12-19T13:00:00.930Z,62.93
2016-12-19T13:01:09.909Z,62.74
2016-12-19T13:02:18.895Z,62.74
2016-12-19T13:03:27.866Z,62.93
2016-12-19T13:04:36.853Z,62.36
2016-12-19T13:05:45.820Z,62.65
2016-12-19T13:06:54.794Z,62.65
2016-12-19T13:08:03.779Z,62.65
2016-12-19T13:09:12.751Z,62.93
2016-12-19T13:10:21.726Z,62.93
2016-12-19T13:11:30.721Z,62.84
2016-12-19T13:12:39.695Z,63.22
2016-12-19T13:13:48.682Z,63.32
2016-12-19T13:14:57.652Z,63.12
2016-12-19T13:16:06.626Z,63.03
2016-12-19T13:17:15.621Z,62.74
2016-12-19T13:18:24.594Z,63.03
2016-12-19T13:19:33.563Z,62.65
2016-12-19T13:20:42.576Z,62.93
2016-12-19T13:21:51.557Z,62.93
2016-12-19T13:23:00.521Z,63.03
2016-12-19T13:24:09.495Z,62.74
2016-12-19T13:25:18.481Z,62.65
2016-12-19T13:26:27.462Z,63.03
2016-12-19T13:27:36.440Z,63.12
2016-12-19T13:28:45.404Z,63.22
2016-12-19T13:29:54.376Z,62.84
2016-12-19T13:31:03.342Z,62.65
2016-12-19T13:32:12.336Z,62.65
2016-12-19T13:33:21.305Z,62.74
2016-12-19T13:34:30.293Z,63.22
2016-12-19T13:35:39.259Z,63.19
2016-12-19T13:36:48.226Z,62.84
2016-12-19T13:37:57.216Z,62.84
2016-12-19T13:39:06.225Z,63.03
2016-12-19T13:40:15.216Z,63.09
2016-12-19T13:41:24.204Z,62.71
2016-12-19T13:42:33.163Z,62.74
2016-12-19T13:43:42.165Z,63.51
2016-12-19T13:44:54.053Z,62.84
2016-12-19T13:46:03.101Z,62.74
2016-12-19T13:47:12.072Z,62.84
2016-12-19T13:48:21.112Z,62.93
2016-12-19T13:49:30.448Z,63.03
2016-12-19T13:50:39.545Z,63.42
2016-12-19T13:51:48.539Z,63.03
2016-12-19T13:52:57.512Z,63.22
2016-12-19T13:54:06.474Z,63.03
2016-12-19T13:55:15.440Z,62.84
2016-12-19T13:56:24.449Z,63.12
2016-12-19T13:57:33.434Z,63.12
2016-12-19T13:58:42.412Z,63.51
2016-12-19T13:59:51.394Z,63.38
2016-12-19T14:01:00.381Z,63.57
2016-12-19T14:02:09.362Z,63.32
2016-12-19T14:03:18.351Z,63
2016-12-19T14:04:27.324Z,63.57
2016-12-19T14:05:36.309Z,63
2016-12-19T14:06:45.290Z,63.09
2016-12-19T14:07:54.262Z,63.38
2016-12-19T14:09:03.239Z,63.38
2016-12-19T14:10:12.213Z,63.67
2016-12-19T14:11:21.188Z,63.38
2016-12-19T14:12:30.166Z,63.48
2016-12-19T14:13:39.191Z,63.29
2016-12-19T14:14:48.175Z,63.38
2016-12-19T14:15:57.161Z,63.19
2016-12-19T14:17:06.158Z,63.29
2016-12-19T14:18:15.128Z,62.71
2016-12-19T14:19:24.109Z,62.55
2016-12-19T14:20:33.087Z,63
2016-12-19T14:21:42.089Z,62.71
2016-12-19T14:22:51.076Z,62.65
2016-12-19T14:24:00.048Z,62.81
2016-12-19T14:25:09.032Z,62.81
2016-12-19T14:26:18.005Z,62.71
2016-12-19T14:27:26.988Z,63.19
2016-12-19T14:28:35.965Z,63.19
2016-12-19T14:29:44.957Z,62.71
2016-12-19T14:30:53.931Z,62.33
2016-12-19T14:32:02.906Z,61.94
2016-12-19T14:33:11.884Z,61.94
2016-12-19T14:34:20.873Z,62.04
2016-12-19T14:35:29.857Z,62.23
2016-12-19T14:36:42.079Z,62.13
2016-12-19T14:37:51.052Z,61.94
2016-12-19T14:39:00.039Z,62.04
2016-12-19T14:40:09.038Z,62.13
2016-12-19T14:41:18.017Z,62.23
2016-12-19T14:42:26.996Z,62.33
2016-12-19T14:43:36.059Z,62.71
2016-12-19T14:44:45.242Z,62.9
2016-12-19T14:45:54.221Z,62.33
2016-12-19T14:47:03.209Z,62.9
2016-12-19T14:48:12.184Z,63.09
2016-12-19T14:49:21.160Z,62.9
2016-12-19T14:50:30.125Z,63.19
2016-12-19T14:51:39.115Z,63.09
2016-12-19T14:52:48.101Z,63.09